Comins, Michigan
Current Conditions -  °F | °C
As of 5:54 AM on Wednesday 22 Oct 2014 (Local Time) from KAPN Reporting Station
Overcast Overcast  
Wind Chill: 37°   Ceiling: 1900
Heat Index: 40°   Visibility: 10mi
Dew Point: 34°   Wind: 5mph
Humidity: 79%   Direction: 30°NNE
Pressure: 30.34"   Gusts: NA
Location:  44.8°N, 84.04°W
Report Text: KAPN 220954Z AUTO 03004KT 10SM OVC019 04/01 A3034 RMK AO2 SLP281 T00440011
Loading
Personal Weather Stations






























Interactive Weather Map New forecast layout! Learn more

10-Day Weather Forecast

Advertisements
Track Severe Weather on mobile